KSAF/SAF METAR and TAF weather

Enter ICAO airport designator
Station Type Date Time Source
KSAF METAR 2021/10/20 06:53 UTC NOAA

KSAF 200653Z AUTO 35008KT 10SM CLR 04/M06 A3020 RMK AO2 SLP173 T00441056 401830044


Station Type Date Time Source
KSAF Decoded METAR 2021/10/20 06:53 UTC NOAA

SANTA FE COUNTY MUNICIPAL, NM, United States (KSAF) 35-37N 106-05W 1930M
Oct 20, 2021 - 02:53 AM EDT / 2021.10.20 0653 UTC
Wind: from the N (350 degrees) at 9 MPH (8 KT):0
Visibility: 10 mile(s):0
Sky conditions: clear
Temperature: 39.9 F (4.4 C)
Dew Point: 21.9 F (-5.6 C)
Relative Humidity: 48%
Pressure (altimeter): 30.2 in. Hg (1022 hPa)
ob: KSAF 200653Z AUTO 35008KT 10SM CLR 04/M06 A3020 RMK AO2 SLP173 T00441056 401830044
cycle: 7

Station Type Date Time Source
KSAF TAF 2021/10/20 06:22 UTC NOAA

TAF KSAF 200520Z 2006/2106 36012KT P6SM SKC
FM201000 36015G22KT P6SM SKC
FM201600 32008KT P6SM SKC
FM202000 27009KT P6SM SKC
FM210100 36006KT P6SM FEW250

Example: see airport list